createdAt,value
2023-03-26T00:01:22.888Z,68.51
2023-03-26T00:03:51.343Z,67.78
2023-03-26T00:06:19.498Z,68.12
2023-03-26T00:08:47.280Z,68.36
2023-03-26T00:11:16.029Z,68.46
2023-03-26T00:13:44.812Z,68.83
2023-03-26T00:16:13.160Z,69.16
2023-03-26T00:18:42.892Z,69.43
2023-03-26T00:21:13.598Z,68.77
2023-03-26T00:23:41.632Z,68.50
2023-03-26T00:26:09.935Z,68.58
2023-03-26T00:28:37.815Z,68.83
2023-03-26T00:31:07.634Z,69.39
2023-03-26T00:33:35.567Z,69.54
2023-03-26T00:36:07.014Z,69.98
2023-03-26T00:38:34.829Z,72.34
2023-03-26T00:41:02.165Z,73.23
2023-03-26T00:43:29.870Z,73.28
2023-03-26T00:45:57.586Z,72.96
2023-03-26T00:48:37.912Z,73.05
2023-03-26T00:51:14.701Z,73.19
2023-03-26T00:53:43.396Z,72.89
2023-03-26T00:56:11.228Z,72.83
2023-03-26T00:58:39.360Z,73.01
2023-03-26T01:01:09.158Z,73.04
2023-03-26T01:03:38.539Z,72.77
2023-03-26T01:06:08.061Z,73.03
2023-03-26T01:08:39.868Z,72.57
2023-03-26T01:11:10.794Z,73.36
2023-03-26T01:13:39.148Z,73.68
2023-03-26T01:16:14.234Z,73.82
2023-03-26T01:18:42.225Z,72.90
2023-03-26T01:21:09.703Z,72.19
2023-03-26T01:23:44.755Z,72.84
2023-03-26T01:26:26.573Z,72.25
2023-03-26T01:28:56.754Z,72.91
2023-03-26T01:31:30.129Z,72.89
2023-03-26T01:34:04.094Z,72.59
2023-03-26T01:36:41.826Z,72.51
2023-03-26T01:39:16.547Z,73.16
2023-03-26T01:41:48.877Z,72.89
2023-03-26T01:44:23.104Z,72.38
2023-03-26T01:46:52.179Z,72.10
2023-03-26T01:49:20.465Z,72.58
2023-03-26T01:51:48.279Z,72.54
2023-03-26T01:54:19.859Z,72.19
2023-03-26T01:57:00.528Z,71.95
2023-03-26T01:59:45.408Z,71.98
2023-03-26T02:02:15.777Z,71.43
2023-03-26T02:04:53.122Z,71.03
2023-03-26T02:07:25.504Z,71.69
2023-03-26T02:10:01.574Z,72.12
2023-03-26T02:12:30.794Z,71.92
2023-03-26T02:15:01.187Z,72.53
2023-03-26T02:17:28.981Z,71.64
2023-03-26T02:19:57.012Z,72.32
2023-03-26T02:22:24.469Z,72.13
2023-03-26T02:24:52.245Z,71.56
2023-03-26T02:27:19.571Z,70.23
2023-03-26T02:29:48.792Z,71.22
2023-03-26T02:32:16.122Z,70.77
2023-03-26T02:34:43.832Z,71.48
2023-03-26T02:37:11.181Z,72.27
2023-03-26T02:39:38.877Z,72.70
2023-03-26T02:42:06.362Z,71.68
2023-03-26T02:44:34.174Z,71.76
2023-03-26T02:47:03.031Z,71.41
2023-03-26T02:49:30.816Z,71.84
2023-03-26T02:51:58.158Z,71.21
2023-03-26T02:54:25.969Z,70.80
2023-03-26T02:56:53.639Z,71.10
2023-03-26T02:59:21.437Z,71.15
2023-03-26T03:01:48.744Z,71.38
2023-03-26T03:04:17.894Z,71.79
2023-03-26T03:06:45.348Z,71.25
2023-03-26T03:09:13.217Z,71.86
2023-03-26T03:11:41.286Z,71.37
2023-03-26T03:14:08.964Z,71.40
2023-03-26T03:16:36.386Z,72.00
2023-03-26T03:19:04.136Z,71.30
2023-03-26T03:21:32.985Z,71.88
2023-03-26T03:24:00.767Z,71.49
2023-03-26T03:26:28.506Z,71.64
2023-03-26T03:28:57.773Z,71.36
2023-03-26T03:31:26.546Z,71.46
2023-03-26T03:33:54.430Z,71.16
2023-03-26T03:36:23.599Z,70.09
2023-03-26T03:38:52.938Z,70.08
2023-03-26T03:41:20.331Z,69.79
2023-03-26T03:43:48.015Z,69.75
2023-03-26T03:46:15.435Z,69.78
2023-03-26T03:48:43.213Z,69.55
2023-03-26T03:51:10.553Z,69.61
2023-03-26T03:53:38.311Z,69.28
2023-03-26T03:56:08.226Z,68.86
2023-03-26T03:58:36.508Z,68.86
2023-03-26T04:01:03.925Z,69.08
2023-03-26T04:03:33.671Z,69.16
2023-03-26T04:06:02.168Z,68.42
2023-03-26T04:08:29.882Z,68.97
2023-03-26T04:10:57.266Z,68.98
2023-03-26T04:13:26.438Z,68.67
2023-03-26T04:15:54.350Z,69.17
2023-03-26T04:18:22.755Z,69.60
2023-03-26T04:20:50.038Z,70.16
2023-03-26T04:23:19.021Z,69.92
2023-03-26T04:25:50.091Z,70.97
2023-03-26T04:28:28.509Z,71.23
2023-03-26T04:30:58.074Z,71.92
2023-03-26T04:33:26.490Z,72.72
2023-03-26T04:35:54.208Z,73.20
2023-03-26T04:38:22.719Z,73.60
2023-03-26T04:40:50.139Z,73.90
2023-03-26T04:43:18.229Z,73.83
2023-03-26T04:45:47.017Z,73.92
2023-03-26T04:48:14.745Z,73.91
2023-03-26T04:50:43.234Z,73.38
2023-03-26T04:53:14.218Z,73.37
2023-03-26T04:55:47.122Z,73.20
2023-03-26T04:58:15.200Z,73.25
2023-03-26T05:00:42.954Z,73.35
2023-03-26T05:03:12.362Z,73.17
2023-03-26T05:05:40.195Z,72.87
2023-03-26T05:08:07.917Z,73.15
2023-03-26T05:10:35.346Z,74.24
2023-03-26T05:13:03.004Z,74.23
2023-03-26T05:15:30.374Z,73.97
2023-03-26T05:17:58.458Z,73.75
2023-03-26T05:20:29.334Z,73.82
2023-03-26T05:22:57.294Z,73.13
2023-03-26T05:25:24.637Z,73.22
2023-03-26T05:27:52.608Z,73.55
2023-03-26T05:30:21.777Z,73.72
2023-03-26T05:32:49.929Z,74.11
2023-03-26T05:35:18.309Z,74.31
2023-03-26T05:37:48.413Z,74.59
2023-03-26T05:40:16.348Z,74.93
2023-03-26T05:42:45.186Z,73.78
2023-03-26T05:45:14.630Z,73.93
2023-03-26T05:47:42.672Z,72.98
2023-03-26T05:50:12.073Z,73.84
2023-03-26T05:52:40.039Z,73.59
2023-03-26T05:55:09.711Z,72.47
2023-03-26T05:57:37.748Z,71.78
2023-03-26T06:00:07.396Z,70.86
2023-03-26T06:02:35.316Z,70.98
2023-03-26T06:05:02.887Z,71.18
2023-03-26T06:07:30.830Z,69.62
2023-03-26T06:09:58.164Z,69.53
2023-03-26T06:12:27.487Z,68.76
2023-03-26T06:14:54.847Z,69.70
2023-03-26T06:17:22.643Z,70.34
2023-03-26T06:19:50.292Z,70.62
2023-03-26T06:22:18.115Z,70.57
2023-03-26T06:24:45.628Z,70.19
2023-03-26T06:27:13.455Z,70.28
2023-03-26T06:29:42.380Z,69.64
2023-03-26T06:32:19.556Z,70.11
2023-03-26T06:34:47.770Z,69.99
2023-03-26T06:37:16.064Z,70.08
2023-03-26T06:39:43.496Z,70.30
2023-03-26T06:42:11.222Z,69.62
2023-03-26T06:44:38.989Z,68.12
2023-03-26T06:47:08.120Z,69.48
2023-03-26T06:49:35.586Z,71.54
2023-03-26T06:52:03.683Z,71.47
2023-03-26T06:54:31.112Z,70.85
2023-03-26T06:56:59.042Z,71.63
2023-03-26T06:59:26.530Z,70.94
2023-03-26T07:01:54.348Z,72.31
2023-03-26T07:04:23.147Z,71.28
2023-03-26T07:06:51.371Z,71.20
2023-03-26T07:09:18.817Z,70.74
2023-03-26T07:11:46.523Z,70.42
2023-03-26T07:14:13.941Z,70.58
2023-03-26T07:16:41.772Z,69.74
2023-03-26T07:19:09.190Z,69.58
2023-03-26T07:21:39.065Z,69.40
2023-03-26T07:24:09.321Z,69.30
2023-03-26T07:26:48.173Z,68.44
2023-03-26T07:29:23.921Z,68.75
2023-03-26T07:32:00.598Z,68.54
2023-03-26T07:34:40.470Z,68.12
2023-03-26T07:37:23.901Z,66.85
2023-03-26T07:39:55.687Z,67.06
2023-03-26T07:42:36.063Z,67.27
2023-03-26T07:45:19.535Z,66.84
2023-03-26T07:47:47.938Z,67.15
2023-03-26T07:50:18.773Z,66.82
2023-03-26T07:52:49.058Z,66.85
2023-03-26T07:55:18.071Z,66.36
2023-03-26T07:58:02.177Z,66.25
2023-03-26T08:00:34.869Z,66.47
2023-03-26T08:03:31.769Z,67.58
2023-03-26T08:06:07.604Z,66.58
2023-03-26T08:08:46.650Z,65.63
2023-03-26T08:11:21.633Z,65.94
2023-03-26T08:13:58.485Z,65.73
2023-03-26T08:16:31.300Z,64.10
2023-03-26T08:19:05.384Z,63.21
2023-03-26T08:21:38.166Z,63.50
2023-03-26T08:24:15.211Z,63.33
2023-03-26T08:26:50.316Z,63.44
2023-03-26T08:29:24.986Z,62.01
2023-03-26T08:31:54.052Z,60.82
2023-03-26T08:34:21.792Z,60.10
2023-03-26T08:36:49.162Z,59.76
2023-03-26T08:39:18.337Z,59.90
2023-03-26T08:42:20.755Z,59.11
2023-03-26T08:45:26.506Z,59.67
2023-03-26T08:48:26.699Z,59.13
2023-03-26T08:51:31.917Z,58.93
2023-03-26T08:54:40.617Z,59.29
2023-03-26T08:57:38.036Z,59.74
2023-03-26T09:00:25.465Z,61.73
2023-03-26T09:03:17.262Z,61.59
2023-03-26T09:06:08.824Z,61.05
2023-03-26T09:09:20.391Z,61.07
2023-03-26T09:12:31.293Z,60.85
2023-03-26T09:15:30.102Z,59.09
2023-03-26T09:18:44.508Z,58.35
2023-03-26T09:21:35.920Z,59.80
2023-03-26T09:24:40.858Z,60.40
2023-03-26T09:27:29.914Z,60.41
2023-03-26T09:30:33.092Z,59.66
2023-03-26T09:33:28.100Z,59.80
2023-03-26T09:36:18.462Z,59.18
2023-03-26T09:38:52.888Z,59.11
2023-03-26T09:41:33.732Z,60.99
2023-03-26T09:44:33.830Z,61.05
2023-03-26T09:47:27.723Z,64.30
2023-03-26T09:50:09.202Z,62.15
2023-03-26T09:52:55.484Z,62.90
2023-03-26T09:55:58.796Z,63.35
2023-03-26T09:58:47.624Z,59.21
2023-03-26T10:01:24.916Z,61.15
2023-03-26T10:04:02.494Z,59.79
2023-03-26T10:06:43.264Z,60.14
2023-03-26T10:09:38.931Z,59.77
2023-03-26T10:12:18.972Z,60.36
2023-03-26T10:14:54.906Z,60.20
2023-03-26T10:17:37.486Z,60.69
2023-03-26T10:20:26.651Z,59.58
2023-03-26T10:23:07.468Z,60.16
2023-03-26T10:25:53.514Z,59.75
2023-03-26T10:28:33.298Z,60.79
2023-03-26T10:31:29.914Z,60.60
2023-03-26T10:34:10.018Z,60.12
2023-03-26T10:37:10.122Z,60.79
2023-03-26T10:40:06.202Z,59.32
2023-03-26T10:42:49.406Z,58.00
2023-03-26T10:45:31.546Z,58.60
2023-03-26T10:48:36.771Z,57.15
2023-03-26T10:51:27.511Z,59.27
2023-03-26T10:54:00.916Z,57.63
2023-03-26T10:56:32.895Z,55.54
2023-03-26T10:59:05.827Z,53.01
2023-03-26T11:01:41.833Z,51.28
2023-03-26T11:04:23.439Z,48.90
2023-03-26T11:07:02.045Z,48.09
2023-03-26T11:09:40.887Z,48.16
2023-03-26T11:12:26.518Z,49.59
2023-03-26T11:15:16.515Z,47.60
2023-03-26T11:17:52.233Z,47.46
2023-03-26T11:20:31.819Z,48.11
2023-03-26T11:23:14.818Z,48.80
2023-03-26T11:25:57.634Z,47.55
2023-03-26T11:29:03.831Z,50.61
2023-03-26T11:31:51.714Z,52.78
2023-03-26T11:34:22.777Z,52.47
2023-03-26T11:36:52.923Z,53.10
2023-03-26T11:39:25.588Z,53.11
2023-03-26T11:42:04.120Z,55.13
2023-03-26T11:44:38.329Z,55.46
2023-03-26T11:47:09.671Z,55.07
2023-03-26T11:49:38.685Z,55.82
2023-03-26T11:52:06.562Z,57.06
2023-03-26T11:54:34.349Z,55.64
2023-03-26T11:57:07.179Z,55.36
2023-03-26T11:59:49.016Z,54.32
2023-03-26T12:02:29.210Z,51.20
2023-03-26T12:05:13.249Z,50.82
2023-03-26T12:07:46.527Z,51.79
2023-03-26T12:10:27.800Z,50.36
2023-03-26T12:12:59.977Z,49.92
2023-03-26T12:15:30.323Z,51.00
2023-03-26T12:17:59.326Z,50.96
2023-03-26T12:20:36.141Z,50.74
2023-03-26T12:23:05.684Z,50.69
2023-03-26T12:25:35.218Z,51.14
2023-03-26T12:28:05.745Z,52.39
2023-03-26T12:30:35.484Z,51.30
2023-03-26T12:33:06.074Z,51.24
2023-03-26T12:35:35.628Z,50.93
2023-03-26T12:38:21.839Z,51.59
2023-03-26T12:41:03.153Z,50.48
2023-03-26T12:44:55.788Z,48.01
2023-03-26T12:47:56.130Z,49.04
2023-03-26T12:49:16.054Z,47.92
2023-03-26T12:51:49.713Z,47.85
2023-03-26T12:54:43.180Z,48.13
2023-03-26T12:57:20.165Z,48.15
2023-03-26T13:00:42.392Z,47.98
2023-03-26T13:03:33.250Z,47.50
2023-03-26T13:06:22.914Z,47.32
2023-03-26T13:09:20.074Z,48.28
2023-03-26T13:12:00.697Z,47.92
2023-03-26T13:14:42.939Z,50.07
2023-03-26T13:17:22.117Z,49.75
2023-03-26T13:20:00.990Z,47.61
2023-03-26T13:22:39.824Z,47.41
2023-03-26T13:25:18.886Z,46.74
2023-03-26T13:27:58.390Z,44.89
2023-03-26T13:30:34.302Z,44.97
2023-03-26T13:33:26.711Z,46.49
2023-03-26T13:36:21.783Z,45.70
2023-03-26T13:39:02.635Z,46.27
2023-03-26T13:41:41.505Z,47.42
2023-03-26T13:44:17.513Z,47.35
2023-03-26T13:46:49.819Z,45.90
2023-03-26T13:49:25.192Z,45.78
2023-03-26T13:51:58.822Z,45.93
2023-03-26T13:54:32.761Z,46.23
2023-03-26T13:57:05.612Z,47.63
2023-03-26T13:59:38.523Z,46.96
2023-03-26T14:02:11.970Z,47.44
2023-03-26T14:04:46.425Z,47.25
2023-03-26T14:07:20.883Z,47.58
2023-03-26T14:09:55.486Z,49.12
2023-03-26T14:12:40.319Z,48.87
2023-03-26T14:15:13.442Z,48.31
2023-03-26T14:17:48.368Z,49.07
2023-03-26T14:20:41.664Z,51.05
2023-03-26T14:23:23.706Z,51.20
2023-03-26T14:26:06.760Z,51.61
2023-03-26T14:28:58.438Z,51.77
2023-03-26T14:31:31.318Z,47.89
2023-03-26T14:34:24.209Z,51.15
2023-03-26T14:37:29.756Z,49.72
2023-03-26T14:40:31.351Z,50.17
2023-03-26T14:43:12.196Z,49.98
2023-03-26T14:45:58.381Z,47.25
2023-03-26T14:49:10.072Z,47.85
2023-03-26T14:52:01.232Z,47.00
2023-03-26T14:54:33.246Z,48.17
2023-03-26T14:57:40.508Z,47.81
2023-03-26T15:00:37.425Z,49.56
2023-03-26T15:03:37.923Z,50.18
2023-03-26T15:06:40.621Z,50.33
2023-03-26T15:09:46.003Z,50.88
2023-03-26T15:12:27.562Z,52.12
2023-03-26T15:15:25.930Z,51.74
2023-03-26T15:18:41.316Z,53.65
2023-03-26T15:21:37.581Z,54.15
2023-03-26T15:24:34.881Z,55.11
2023-03-26T15:27:27.190Z,54.42
2023-03-26T15:30:31.231Z,54.53
2023-03-26T15:33:25.889Z,56.61
2023-03-26T15:36:27.590Z,57.02
2023-03-26T15:39:30.265Z,57.31
2023-03-26T15:42:07.864Z,59.58
2023-03-26T15:44:54.080Z,62.00
2023-03-26T15:47:54.355Z,61.01
2023-03-26T15:50:40.315Z,59.55
2023-03-26T15:53:22.376Z,62.58
2023-03-26T15:56:10.411Z,60.57
2023-03-26T15:58:48.998Z,59.22
2023-03-26T16:01:32.593Z,57.96
2023-03-26T16:04:18.289Z,56.72
2023-03-26T16:06:57.232Z,55.50
2023-03-26T16:09:49.996Z,56.67
2023-03-26T16:12:33.338Z,57.44
2023-03-26T16:15:26.751Z,57.16
2023-03-26T16:18:29.901Z,56.29
2023-03-26T16:21:32.785Z,56.29
2023-03-26T16:24:23.122Z,57.52
2023-03-26T16:27:05.826Z,57.21
2023-03-26T16:29:54.613Z,57.00
2023-03-26T16:32:27.097Z,58.24
2023-03-26T16:34:57.701Z,58.66
2023-03-26T16:37:42.825Z,58.74
2023-03-26T16:40:33.863Z,59.31
2023-03-26T16:43:18.727Z,58.10
2023-03-26T16:45:55.259Z,57.61
2023-03-26T16:48:32.423Z,57.09
2023-03-26T16:51:08.287Z,57.87
2023-03-26T16:53:42.618Z,57.84
2023-03-26T16:56:16.460Z,57.64
2023-03-26T16:58:54.442Z,56.96
2023-03-26T17:01:34.677Z,57.39
2023-03-26T17:04:09.269Z,56.15
2023-03-26T17:06:55.850Z,54.97
2023-03-26T17:09:33.430Z,55.67
2023-03-26T17:12:07.298Z,56.14
2023-03-26T17:14:46.484Z,55.74
2023-03-26T17:17:31.496Z,55.97
2023-03-26T17:20:09.521Z,55.80
2023-03-26T17:22:42.655Z,56.34
2023-03-26T17:25:25.485Z,57.91
2023-03-26T17:28:11.197Z,62.07
2023-03-26T17:30:53.215Z,62.27
2023-03-26T17:33:27.626Z,64.29
2023-03-26T17:36:28.135Z,68.37
2023-03-26T17:39:18.674Z,68.86
2023-03-26T17:42:05.108Z,68.41
2023-03-26T17:44:41.383Z,66.71
2023-03-26T17:47:27.072Z,67.28
2023-03-26T17:50:01.246Z,65.74
2023-03-26T17:52:41.837Z,66.26
2023-03-26T17:55:15.756Z,65.30
2023-03-26T17:57:45.575Z,64.90
2023-03-26T18:00:20.853Z,64.79
2023-03-26T18:02:54.552Z,64.65
2023-03-26T18:05:27.047Z,64.71
2023-03-26T18:08:33.728Z,64.98
2023-03-26T18:11:22.029Z,65.07
2023-03-26T18:14:32.604Z,65.52
2023-03-26T18:17:01.777Z,66.36
2023-03-26T18:19:29.685Z,65.77
2023-03-26T18:21:59.512Z,65.35
2023-03-26T18:24:30.677Z,65.59
2023-03-26T18:27:01.977Z,65.78
2023-03-26T18:29:31.205Z,67.48
2023-03-26T18:32:00.872Z,68.17
2023-03-26T18:34:31.454Z,68.38
2023-03-26T18:37:18.489Z,68.82
2023-03-26T18:39:58.754Z,69.50
2023-03-26T18:42:28.371Z,69.95
2023-03-26T18:45:00.857Z,70.91
2023-03-26T18:47:31.507Z,70.46
2023-03-26T18:50:00.229Z,71.56
2023-03-26T18:52:30.108Z,72.19
2023-03-26T18:54:59.976Z,72.17
2023-03-26T18:57:29.522Z,71.59
2023-03-26T19:00:08.564Z,71.07
2023-03-26T19:02:38.433Z,71.20
2023-03-26T19:05:07.360Z,71.01
2023-03-26T19:07:35.798Z,70.34
2023-03-26T19:10:05.769Z,70.29
2023-03-26T19:12:33.612Z,70.03
2023-03-26T19:15:05.169Z,69.83
2023-03-26T19:17:38.808Z,68.95
2023-03-26T19:20:13.105Z,68.42
2023-03-26T19:22:41.674Z,68.52
2023-03-26T19:25:21.291Z,68.48
2023-03-26T19:27:49.409Z,69.08
2023-03-26T19:30:23.077Z,70.23
2023-03-26T19:32:53.690Z,69.55
2023-03-26T19:35:22.925Z,69.48
2023-03-26T19:37:52.587Z,70.36
2023-03-26T19:40:23.340Z,70.32
2023-03-26T19:42:51.233Z,69.85
2023-03-26T19:45:20.536Z,69.69
2023-03-26T19:48:00.104Z,69.64
2023-03-26T19:50:35.089Z,69.63
2023-03-26T19:53:19.683Z,69.72
2023-03-26T19:55:56.361Z,70.50
2023-03-26T19:58:25.279Z,70.97
2023-03-26T20:00:53.109Z,70.31
2023-03-26T20:03:27.769Z,70.49
2023-03-26T20:05:55.388Z,69.92
2023-03-26T20:08:23.199Z,69.35
2023-03-26T20:10:50.832Z,68.40
2023-03-26T20:13:20.504Z,67.97
2023-03-26T20:16:04.993Z,67.68
2023-03-26T20:18:33.696Z,67.88
2023-03-26T20:21:01.266Z,67.72
2023-03-26T20:23:29.216Z,67.87
2023-03-26T20:25:57.015Z,68.06
2023-03-26T20:28:26.541Z,67.96
2023-03-26T20:30:54.794Z,66.97
2023-03-26T20:33:24.986Z,68.25
2023-03-26T20:35:52.576Z,67.96
2023-03-26T20:38:26.518Z,67.88
2023-03-26T20:41:00.497Z,67.43
2023-03-26T20:43:29.973Z,67.25
2023-03-26T20:45:57.828Z,67.01
2023-03-26T20:48:25.821Z,66.59
2023-03-26T20:50:53.403Z,67.19
2023-03-26T20:53:21.297Z,67.60
2023-03-26T20:55:51.080Z,65.17
2023-03-26T20:58:31.332Z,64.58
2023-03-26T21:01:02.066Z,64.49
2023-03-26T21:03:30.463Z,64.29
2023-03-26T21:06:00.543Z,63.64
2023-03-26T21:08:29.159Z,63.77
2023-03-26T21:10:58.169Z,63.84
2023-03-26T21:13:36.817Z,64.79
2023-03-26T21:16:07.370Z,65.38
2023-03-26T21:18:36.110Z,65.51
2023-03-26T21:21:21.589Z,66.68
2023-03-26T21:23:55.348Z,67.25
2023-03-26T21:26:28.661Z,68.92
2023-03-26T21:28:56.743Z,69.95
2023-03-26T21:31:26.467Z,70.14
2023-03-26T21:33:54.902Z,70.09
2023-03-26T21:36:25.924Z,70.03
2023-03-26T21:38:54.792Z,70.40
2023-03-26T21:41:33.167Z,71.02
2023-03-26T21:44:00.579Z,70.83
2023-03-26T21:46:30.320Z,70.56
2023-03-26T21:48:58.897Z,70.39
2023-03-26T21:51:27.102Z,70.15
2023-03-26T21:53:55.349Z,69.76
2023-03-26T21:56:37.451Z,70.71
2023-03-26T21:59:14.753Z,71.16
2023-03-26T22:01:51.177Z,70.55
2023-03-26T22:04:28.276Z,71.31
2023-03-26T22:06:59.562Z,70.74
2023-03-26T22:12:01.340Z,70.21
2023-03-26T22:14:29.229Z,70.73
2023-03-26T22:16:58.120Z,70.93
2023-03-26T22:19:25.943Z,71.45
2023-03-26T22:21:53.448Z,72.31
2023-03-26T22:24:21.265Z,72.36
2023-03-26T22:26:48.678Z,71.82
2023-03-26T22:29:16.957Z,72.45
2023-03-26T22:31:44.405Z,72.52
2023-03-26T22:34:13.683Z,72.69
2023-03-26T22:36:41.209Z,73.12
2023-03-26T22:39:09.152Z,73.21
2023-03-26T22:41:36.594Z,73.78
2023-03-26T22:44:16.822Z,74.12
2023-03-26T22:46:46.972Z,73.72
2023-03-26T22:49:16.169Z,73.74
2023-03-26T22:51:44.091Z,73.82
2023-03-26T22:54:12.015Z,74.60
2023-03-26T22:56:39.644Z,74.47
2023-03-26T22:59:07.818Z,75.25
2023-03-26T23:01:35.365Z,75.62
2023-03-26T23:04:03.300Z,75.52
2023-03-26T23:06:32.526Z,76.34
2023-03-26T23:09:00.339Z,76.75
2023-03-26T23:11:27.786Z,76.46
2023-03-26T23:13:55.653Z,76.25
2023-03-26T23:16:23.084Z,76.43
2023-03-26T23:18:50.936Z,76.45
2023-03-26T23:21:20.973Z,77.20
2023-03-26T23:23:50.577Z,76.40
2023-03-26T23:26:18.022Z,77.13
2023-03-26T23:28:45.930Z,77.10
2023-03-26T23:31:13.516Z,77.20
2023-03-26T23:33:42.173Z,77.48
2023-03-26T23:36:10.199Z,77.94
2023-03-26T23:38:43.252Z,78.07
2023-03-26T23:41:14.002Z,78.18
2023-03-26T23:43:53.694Z,78.53
2023-03-26T23:46:23.574Z,78.00
2023-03-26T23:48:51.971Z,78.06
2023-03-26T23:51:19.869Z,77.87
2023-03-26T23:53:49.031Z,78.88
2023-03-26T23:56:17.956Z,78.21
2023-03-26T23:58:45.829Z,77.72
